الصفحة الرئيسية
METAR-TAF:

METAR-TAF

مطار :

مطار فرانسيسكو بانجوي الدولي

دافاو, الفلبين

دائرة عرض: 07-07N, خط طول: 125-39E, ارتفاع: 17 متر

مراقبة الطقس الحالي

تاريخ ووقت الإصدار 52 دقيقة قبل الساعة 00:00UTC
ريح 7 عقدة من الشمال, الاتجاه يتراوح بين الغرب/الشمال الغربي و الشمال/الشمال الشرقي
درجة الحرارة 28°درجة مئوية
الرطوبة 74%
ضغط 1012 hPa
الرؤية 10 كم أو أكثر
غيوم قليلة على ارتفاع 1600 قدم
غيوم مفككة على ارتفاع 29000 قدم

METAR: RPMD 290000Z 35007KT 300V030 9999 FEW016 BKN290 28/23 Q1012 RMK A2988

زمن: 08:52 (00:52 UTC)

توقعات

تاريخ ووقت الإصدار 1ساعة و 52 دقيقة قبل الساعة 23:00UTC
التوقعات صالحة من29 الساعة 00 UTC إلى 29 الساعة 24 UTC
ريح 6 عقدة من الشمال
الرؤية 10 كم أو أكثر
غيوم قليلة على ارتفاع 1600 قدم
غيوم متفرقة على ارتفاع 9000 قدم
غيوم مفككة على ارتفاع 29000 قدم
مؤقت
من 29 الساعة 03 UTC إلى 29 الساعة 09 UTC
ريح 12 عقدة من الشمال الشرقي
غيوم مفككة على ارتفاع 9000 قدم
غيوم مفككة على ارتفاع 26000 قدم
زخات من الأمطار الخفيفة

TAF: RPMD 282300Z 2900/2924 36006KT 9999 FEW016 SCT090 BKN290 TEMPO 2903/2909 05012KT -SHRA FEW015B BKN090 BKN260

أرصاد الطقس والتوقعات من أكثر من 4000 مطار (تقارير الطقس للمطار METAR والتنبؤ بالطقس بالمطارTAF).

المحطات المتاحة هي النقط الصفراء والحمراء على الخريطة.

حرك المؤشر فوق النقطة لمعرفة اسم المحطة.

ثم انقر لمعرفة أرصاد وتوقعات الطقس.

لتغيير الخارطة: اضغط على الأزرار الخضراء مع رمز الصليب الأسود للتكبير. على الزر الأخضر مع شرطة للتصغير، أو على الأسهم الخضراء للخرائط المجاورة.


METAR-TAF: